createdAt,value
2018-04-23T00:00:35.206Z,44.3
2018-04-23T00:01:35.220Z,44.29
2018-04-23T00:02:35.270Z,44.38
2018-04-23T00:03:35.214Z,44.61
2018-04-23T00:04:35.278Z,44.68
2018-04-23T00:05:35.205Z,44.38
2018-04-23T00:06:35.214Z,44.73
2018-04-23T00:07:35.386Z,44.84
2018-04-23T00:08:35.174Z,44.82
2018-04-23T00:09:35.201Z,44.72
2018-04-23T00:10:35.208Z,45.1
2018-04-23T00:11:35.205Z,45.17
2018-04-23T00:12:35.203Z,44.89
2018-04-23T00:13:35.197Z,45.73
2018-04-23T00:14:35.289Z,45.52
2018-04-23T00:15:35.226Z,45.09
2018-04-23T00:16:35.244Z,44.97
2018-04-23T00:17:35.217Z,44.66
2018-04-23T00:18:35.243Z,44.87
2018-04-23T00:19:35.204Z,45.16
2018-04-23T00:20:35.192Z,45.62
2018-04-23T00:21:35.199Z,44.63
2018-04-23T00:22:35.224Z,44.72
2018-04-23T00:23:35.359Z,44.79
2018-04-23T00:24:35.190Z,44.79
2018-04-23T00:25:35.193Z,44.99
2018-04-23T00:26:35.238Z,44.91
2018-04-23T00:27:35.196Z,44.92
2018-04-23T00:28:35.220Z,45.35
2018-04-23T00:29:35.193Z,45.42
2018-04-23T00:30:35.199Z,45.22
2018-04-23T00:31:35.210Z,45.34
2018-04-23T00:32:35.237Z,45.24
2018-04-23T00:33:35.206Z,45.75
2018-04-23T00:34:35.240Z,45.67
2018-04-23T00:35:35.185Z,45.26
2018-04-23T00:36:35.189Z,45.32
2018-04-23T00:37:35.194Z,45.9
2018-04-23T00:38:35.199Z,45.91
2018-04-23T00:39:35.221Z,45.69
2018-04-23T00:40:35.206Z,46.01
2018-04-23T00:41:35.189Z,45.87
2018-04-23T00:42:35.187Z,45.85
2018-04-23T00:43:35.450Z,46.48
2018-04-23T00:44:35.187Z,45.86
2018-04-23T00:45:35.198Z,46.08
2018-04-23T00:46:35.196Z,45.66
2018-04-23T00:47:35.272Z,45.83
2018-04-23T00:48:35.210Z,45.58
2018-04-23T00:49:35.226Z,45.82
2018-04-23T00:50:35.193Z,45.79
2018-04-23T00:51:35.189Z,45.85
2018-04-23T00:52:35.178Z,45.62
2018-04-23T00:53:35.181Z,45.86
2018-04-23T00:54:35.180Z,45.84
2018-04-23T00:55:35.222Z,46.04
2018-04-23T00:56:35.320Z,45.67
2018-04-23T00:57:35.180Z,45.83
2018-04-23T00:58:35.187Z,46.16
2018-04-23T00:59:35.193Z,46.18
2018-04-23T01:00:35.200Z,46.47
2018-04-23T01:01:35.180Z,46.73
2018-04-23T01:02:35.174Z,46.37
2018-04-23T01:03:35.513Z,46.8
2018-04-23T01:04:35.354Z,46.49
2018-04-23T01:05:35.193Z,46.58
2018-04-23T01:06:35.172Z,46.33
2018-04-23T01:07:35.165Z,46.45
2018-04-23T01:08:35.207Z,46.51
2018-04-23T01:09:35.193Z,46.62
2018-04-23T01:10:35.325Z,46.44
2018-04-23T01:11:35.197Z,46.87
2018-04-23T01:12:35.177Z,46.63
2018-04-23T01:13:35.213Z,46.37
2018-04-23T01:14:35.192Z,46.26
2018-04-23T01:15:35.189Z,46.22
2018-04-23T01:16:35.204Z,46.42
2018-04-23T01:17:35.203Z,46.06
2018-04-23T01:18:35.189Z,45.75
2018-04-23T01:19:35.214Z,46.06
2018-04-23T01:20:35.164Z,45.51
2018-04-23T01:21:35.204Z,45.78
2018-04-23T01:22:35.183Z,45.67
2018-04-23T01:23:35.250Z,45.73
2018-04-23T01:24:35.221Z,45.71
2018-04-23T01:25:35.166Z,45.76
2018-04-23T01:26:35.169Z,45.83
2018-04-23T01:27:35.179Z,46.12
2018-04-23T01:28:35.173Z,45.94
2018-04-23T01:29:35.183Z,45.77
2018-04-23T01:30:35.192Z,46.01
2018-04-23T01:31:35.164Z,46.11
2018-04-23T01:32:35.194Z,46.4
2018-04-23T01:33:35.169Z,46.39
2018-04-23T01:34:35.228Z,46.7
2018-04-23T01:35:35.178Z,46.21
2018-04-23T01:36:35.152Z,46.4
2018-04-23T01:37:35.198Z,46.62
2018-04-23T01:38:35.261Z,46.31
2018-04-23T01:39:35.212Z,46.46
2018-04-23T01:40:35.189Z,46.61
2018-04-23T01:41:35.225Z,46.58
2018-04-23T01:42:35.217Z,46.58
2018-04-23T01:43:35.189Z,46.37
2018-04-23T01:44:35.191Z,46.45
2018-04-23T01:45:35.232Z,46.71
2018-04-23T01:46:35.173Z,47.15
2018-04-23T01:47:35.145Z,46.8
2018-04-23T01:48:35.175Z,46.76
2018-04-23T01:49:35.171Z,47.37
2018-04-23T01:50:35.176Z,47.5
2018-04-23T01:51:35.176Z,47.5
2018-04-23T01:52:35.164Z,47.63
2018-04-23T01:53:35.172Z,47.47
2018-04-23T01:54:35.207Z,47.34
2018-04-23T01:55:35.165Z,47.27
2018-04-23T01:56:35.178Z,47.53
2018-04-23T01:57:35.172Z,47.32
2018-04-23T01:58:35.214Z,47.57
2018-04-23T01:59:35.168Z,47.7
2018-04-23T02:00:35.164Z,48.17
2018-04-23T02:01:35.219Z,47.76
2018-04-23T02:02:35.183Z,48.06
2018-04-23T02:03:35.162Z,47.81
2018-04-23T02:04:35.225Z,47.44
2018-04-23T02:05:35.158Z,47.81
2018-04-23T02:06:35.170Z,48.17
2018-04-23T02:07:35.182Z,48.19
2018-04-23T02:08:35.171Z,48.4
2018-04-23T02:09:35.186Z,47.98
2018-04-23T02:10:35.165Z,48.02
2018-04-23T02:11:35.171Z,48.03
2018-04-23T02:12:35.185Z,48.31
2018-04-23T02:13:35.154Z,48.45
2018-04-23T02:14:35.183Z,48.5
2018-04-23T02:15:35.159Z,48.18
2018-04-23T02:16:35.201Z,48.72
2018-04-23T02:17:35.289Z,48.67
2018-04-23T02:18:35.173Z,48.64
2018-04-23T02:19:35.217Z,48.42
2018-04-23T02:20:35.189Z,48.01
2018-04-23T02:21:35.169Z,47.94
2018-04-23T02:22:35.163Z,47.9
2018-04-23T02:23:35.183Z,48.08
2018-04-23T02:24:35.322Z,47.87
2018-04-23T02:25:35.329Z,48.1
2018-04-23T02:26:35.175Z,47.73
2018-04-23T02:27:35.168Z,47.68
2018-04-23T02:28:35.158Z,47.87
2018-04-23T02:29:35.149Z,47.85
2018-04-23T02:30:35.231Z,47.55
2018-04-23T02:31:35.195Z,47.86
2018-04-23T02:32:35.181Z,47.58
2018-04-23T02:33:35.173Z,47.71
2018-04-23T02:34:35.188Z,47.97
2018-04-23T02:35:35.104Z,48.21
2018-04-23T02:36:35.548Z,47.76
2018-04-23T02:37:35.180Z,47.81
2018-04-23T02:38:35.171Z,47.44
2018-04-23T02:39:35.266Z,47.36
2018-04-23T02:40:35.196Z,47.6
2018-04-23T02:41:35.202Z,47.45
2018-04-23T02:42:35.179Z,47.26
2018-04-23T02:43:35.212Z,47.52
2018-04-23T02:44:35.157Z,47.37
2018-04-23T02:45:35.131Z,47.46
2018-04-23T02:46:35.188Z,47.78
2018-04-23T02:47:35.166Z,47.52
2018-04-23T02:48:35.188Z,47.72
2018-04-23T02:49:35.228Z,47.6
2018-04-23T02:50:35.158Z,47.72
2018-04-23T02:51:35.249Z,47.95
2018-04-23T02:52:35.179Z,47.98
2018-04-23T02:53:35.193Z,48.97
2018-04-23T02:54:35.163Z,48.87
2018-04-23T02:55:35.142Z,48.59
2018-04-23T02:56:35.174Z,48.13
2018-04-23T02:57:35.141Z,47.86
2018-04-23T02:58:35.238Z,48.1
2018-04-23T02:59:35.145Z,47.89
2018-04-23T03:00:35.192Z,48.1
2018-04-23T03:01:35.326Z,48.52
2018-04-23T03:02:35.408Z,48.36
2018-04-23T03:03:35.272Z,48.07
2018-04-23T03:04:35.206Z,48.3
2018-04-23T03:05:35.154Z,48.68
2018-04-23T03:06:35.174Z,48.88
2018-04-23T03:07:35.149Z,48.53
2018-04-23T03:08:35.155Z,49.26
2018-04-23T03:09:35.141Z,48.86
2018-04-23T03:10:35.136Z,49.31
2018-04-23T03:11:35.149Z,49.36
2018-04-23T03:12:35.131Z,48.81
2018-04-23T03:13:35.180Z,48.78
2018-04-23T03:14:35.136Z,48.63
2018-04-23T03:15:35.128Z,48.76
2018-04-23T03:16:35.135Z,48.74
2018-04-23T03:17:35.219Z,48.72
2018-04-23T03:18:35.138Z,48.57
2018-04-23T03:19:35.147Z,48.27
2018-04-23T03:20:35.165Z,48.65
2018-04-23T03:21:35.143Z,48.37
2018-04-23T03:22:35.139Z,49.1
2018-04-23T03:23:35.151Z,48.8
2018-04-23T03:24:35.163Z,49.32
2018-04-23T03:25:35.135Z,49.3
2018-04-23T03:26:35.165Z,49.17
2018-04-23T03:27:35.128Z,49.91
2018-04-23T03:28:35.138Z,49.39
2018-04-23T03:29:35.123Z,48.96
2018-04-23T03:30:35.153Z,49.16
2018-04-23T03:31:35.152Z,49.51
2018-04-23T03:32:35.147Z,49.24
2018-04-23T03:33:35.139Z,49.45
2018-04-23T03:34:35.150Z,50.12
2018-04-23T03:35:35.145Z,49.56
2018-04-23T03:36:35.452Z,49.89
2018-04-23T03:37:35.148Z,50.23
2018-04-23T03:38:35.137Z,49.51
2018-04-23T03:39:35.127Z,49.94
2018-04-23T03:40:35.190Z,49.47
2018-04-23T03:41:35.138Z,49.66
2018-04-23T03:42:35.128Z,49.88
2018-04-23T03:43:35.125Z,49.79
2018-04-23T03:44:35.128Z,49.88
2018-04-23T03:45:35.140Z,49.71
2018-04-23T03:46:35.118Z,50.17
2018-04-23T03:47:35.165Z,49.83
2018-04-23T03:48:35.217Z,50.18
2018-04-23T03:49:35.136Z,50.69
2018-04-23T03:50:35.302Z,50.16
2018-04-23T03:51:35.180Z,50.26
2018-04-23T03:52:35.153Z,49.92
2018-04-23T03:53:35.102Z,50.16
2018-04-23T03:54:35.123Z,50.28
2018-04-23T03:55:35.177Z,49.9
2018-04-23T03:56:35.486Z,50.38
2018-04-23T03:57:35.114Z,50.25
2018-04-23T03:58:35.286Z,50.28
2018-04-23T03:59:35.102Z,50.59
2018-04-23T04:00:35.142Z,50.28
2018-04-23T04:01:35.195Z,50.57
2018-04-23T04:02:35.135Z,50.42
2018-04-23T04:03:35.116Z,50.32
2018-04-23T04:04:35.151Z,50.77
2018-04-23T04:05:35.110Z,50.94
2018-04-23T04:06:35.136Z,50.52
2018-04-23T04:07:35.128Z,50.98
2018-04-23T04:08:35.132Z,50.64
2018-04-23T04:09:35.160Z,50.89
2018-04-23T04:10:35.487Z,51.2
2018-04-23T04:11:35.110Z,51.19
2018-04-23T04:12:35.136Z,50.75
2018-04-23T04:13:35.126Z,50.97
2018-04-23T04:14:35.123Z,51.62
2018-04-23T04:15:35.201Z,50.83
2018-04-23T04:16:35.271Z,50.69
2018-04-23T04:17:35.146Z,50.93
2018-04-23T04:18:35.132Z,51.56
2018-04-23T04:19:35.137Z,51.64
2018-04-23T04:20:35.145Z,51.27
2018-04-23T04:21:35.112Z,51.28
2018-04-23T04:22:35.103Z,51.36
2018-04-23T04:23:35.246Z,51.86
2018-04-23T04:24:35.553Z,51.62
2018-04-23T04:25:35.119Z,51.86
2018-04-23T04:26:35.102Z,52.18
2018-04-23T04:27:35.107Z,52.25
2018-04-23T04:28:35.135Z,52.03
2018-04-23T04:29:35.121Z,52.17
2018-04-23T04:30:35.157Z,52.36
2018-04-23T04:31:35.159Z,52.69
2018-04-23T04:32:35.174Z,52.14
2018-04-23T04:33:35.130Z,52.77
2018-04-23T04:34:35.112Z,52.5
2018-04-23T04:35:35.634Z,52.64
2018-04-23T04:36:35.148Z,52.48
2018-04-23T04:37:35.120Z,52.58
2018-04-23T04:38:35.143Z,53.03
2018-04-23T04:39:35.107Z,52.6
2018-04-23T04:40:35.122Z,52.59
2018-04-23T04:41:35.240Z,52.69
2018-04-23T04:42:35.111Z,53.12
2018-04-23T04:43:35.101Z,52.6
2018-04-23T04:44:35.107Z,53.17
2018-04-23T04:45:35.322Z,53.2
2018-04-23T04:46:35.130Z,53.12
2018-04-23T04:47:35.089Z,52.92
2018-04-23T04:48:35.087Z,52.95
2018-04-23T04:49:35.092Z,53.12
2018-04-23T04:50:35.100Z,52.38
2018-04-23T04:51:35.142Z,52.65
2018-04-23T04:52:35.092Z,53.52
2018-04-23T04:53:35.116Z,53.17
2018-04-23T04:54:35.165Z,53.5
2018-04-23T04:55:35.115Z,53.69
2018-04-23T04:56:35.122Z,53.65
2018-04-23T04:57:35.104Z,53.62
2018-04-23T04:58:35.107Z,53.71
2018-04-23T04:59:35.123Z,54.18
2018-04-23T05:00:35.106Z,53.09
2018-04-23T05:01:35.170Z,53.49
2018-04-23T05:02:35.084Z,54.44
2018-04-23T05:03:35.077Z,54.44
2018-04-23T05:04:35.124Z,53.77
2018-04-23T05:05:35.087Z,54.54
2018-04-23T05:06:35.095Z,54.42
2018-04-23T05:07:35.098Z,54.15
2018-04-23T05:08:35.263Z,54.2
2018-04-23T05:09:35.099Z,54.59
2018-04-23T05:10:35.247Z,54.68
2018-04-23T05:11:35.220Z,54.36
2018-04-23T05:12:35.098Z,54.2
2018-04-23T05:13:35.191Z,54.02
2018-04-23T05:14:35.322Z,54.3
2018-04-23T05:15:35.127Z,54.62
2018-04-23T05:16:35.146Z,54.05
2018-04-23T05:17:35.091Z,53.67
2018-04-23T05:18:35.113Z,53.28
2018-04-23T05:19:35.307Z,53.66
2018-04-23T05:20:35.101Z,53.73
2018-04-23T05:21:35.119Z,53.43
2018-04-23T05:22:35.101Z,54.49
2018-04-23T05:23:35.226Z,54.05
2018-04-23T05:24:35.115Z,54.84
2018-04-23T05:25:35.223Z,54.13
2018-04-23T05:26:35.118Z,53.96
2018-04-23T05:27:35.143Z,54.16
2018-04-23T05:28:35.143Z,54.38
2018-04-23T05:29:35.150Z,54.15
2018-04-23T05:30:35.156Z,54
2018-04-23T05:31:35.112Z,54.48
2018-04-23T05:32:35.130Z,54.03
2018-04-23T05:33:35.270Z,54.87
2018-04-23T05:34:35.121Z,53.98
2018-04-23T05:35:35.141Z,53.71
2018-04-23T05:36:35.103Z,54.09
2018-04-23T05:37:35.352Z,54.36
2018-04-23T05:38:35.275Z,53.8
2018-04-23T05:39:35.141Z,53.93
2018-04-23T05:40:35.207Z,53.98
2018-04-23T05:41:35.110Z,55.24
2018-04-23T05:42:35.171Z,55.55
2018-04-23T05:43:35.125Z,55.5
2018-04-23T05:44:35.161Z,55.04
2018-04-23T05:45:35.150Z,54.33
2018-04-23T05:46:35.123Z,54.7
2018-04-23T05:47:35.155Z,54.53
2018-04-23T05:48:35.113Z,54.15
2018-04-23T05:49:35.132Z,54.44
2018-04-23T05:50:35.151Z,54.41
2018-04-23T05:51:35.117Z,54.67
2018-04-23T05:52:35.228Z,54.71
2018-04-23T05:53:35.130Z,54.58
2018-04-23T05:54:35.166Z,54.82
2018-04-23T05:55:35.124Z,54.71
2018-04-23T05:56:35.167Z,53.98
2018-04-23T05:57:35.110Z,54.6
2018-04-23T05:58:35.119Z,54.65
2018-04-23T05:59:35.132Z,54.96
2018-04-23T06:00:35.120Z,54.92
2018-04-23T06:01:35.141Z,55.54
2018-04-23T06:02:35.390Z,55.1
2018-04-23T06:03:35.331Z,55.23
2018-04-23T06:04:35.145Z,55.4
2018-04-23T06:05:35.112Z,55.8
2018-04-23T06:06:35.128Z,56.79
2018-04-23T06:07:35.260Z,56.69
2018-04-23T06:08:35.151Z,56.29
2018-04-23T06:09:35.221Z,56.56
2018-04-23T06:10:35.137Z,56.78
2018-04-23T06:11:35.151Z,56.63
2018-04-23T06:12:35.167Z,56.31
2018-04-23T06:13:35.120Z,57.01
2018-04-23T06:14:35.132Z,57.47
2018-04-23T06:15:35.183Z,58.07
2018-04-23T06:16:35.170Z,60.22
2018-04-23T06:17:35.548Z,60.7
2018-04-23T06:18:35.260Z,61.52
2018-04-23T06:19:35.178Z,62.63
2018-04-23T06:20:35.154Z,63.49
2018-04-23T06:21:35.149Z,66.43
2018-04-23T06:22:35.514Z,66.47
2018-04-23T06:23:35.132Z,67.93
2018-04-23T06:24:35.261Z,68.37
2018-04-23T06:25:35.131Z,71.64
2018-04-23T06:26:35.139Z,71.82
2018-04-23T06:27:35.153Z,73.81
2018-04-23T06:28:35.172Z,73.61
2018-04-23T06:29:35.149Z,71.13
2018-04-23T06:30:35.139Z,74.25
2018-04-23T06:31:35.139Z,72.85
2018-04-23T06:32:35.171Z,73.55
2018-04-23T06:33:35.137Z,74.19
2018-04-23T06:34:35.185Z,72.24
2018-04-23T06:35:35.181Z,73.61
2018-04-23T06:36:35.372Z,73
2018-04-23T06:37:35.170Z,71.78
2018-04-23T06:38:35.145Z,74.65
2018-04-23T06:39:35.187Z,74.12
2018-04-23T06:40:35.139Z,74.85
2018-04-23T06:41:35.302Z,71.26
2018-04-23T06:42:35.189Z,74.28
2018-04-23T06:43:35.240Z,74.99
2018-04-23T06:44:35.180Z,73.48
2018-04-23T06:45:35.186Z,72.34
2018-04-23T06:46:35.173Z,74.58
2018-04-23T06:47:35.152Z,75.44
2018-04-23T06:48:35.148Z,74.62
2018-04-23T06:49:35.151Z,75.41
2018-04-23T06:50:35.148Z,73.8
2018-04-23T06:51:35.181Z,74.72
2018-04-23T06:52:35.170Z,75.33
2018-04-23T06:53:35.293Z,76.55
2018-04-23T06:54:35.479Z,75.09
2018-04-23T06:55:35.199Z,75.53
2018-04-23T06:56:35.166Z,76.15
2018-04-23T06:57:35.156Z,73.62
2018-04-23T06:58:35.152Z,76.22
2018-04-23T06:59:35.203Z,77.25
2018-04-23T07:00:35.178Z,75.77
2018-04-23T07:01:35.172Z,74.67
2018-04-23T07:02:35.211Z,75.72
2018-04-23T07:03:35.176Z,73.76
2018-04-23T07:04:35.205Z,75.87
2018-04-23T07:05:35.145Z,74.29
2018-04-23T07:06:35.158Z,74.99
2018-04-23T07:07:35.154Z,74.45
2018-04-23T07:08:35.171Z,73.01
2018-04-23T07:09:35.172Z,72.48
2018-04-23T07:10:35.188Z,73.49
2018-04-23T07:11:35.160Z,74.83
2018-04-23T07:12:35.144Z,75.46
2018-04-23T07:13:35.142Z,74.83
2018-04-23T07:14:35.158Z,74.65
2018-04-23T07:15:35.189Z,74.23
2018-04-23T07:16:35.384Z,74.61
2018-04-23T07:17:35.180Z,74.9
2018-04-23T07:18:35.158Z,75.01
2018-04-23T07:19:35.165Z,75.37
2018-04-23T07:20:35.233Z,77.35
2018-04-23T07:21:35.204Z,77.04
2018-04-23T07:22:35.271Z,77.03
2018-04-23T07:23:35.149Z,77.07
2018-04-23T07:24:35.198Z,77.2
2018-04-23T07:25:35.185Z,77.29
2018-04-23T07:26:35.191Z,77.83
2018-04-23T07:27:35.217Z,77.27
2018-04-23T07:28:35.142Z,77.67
2018-04-23T07:29:35.173Z,77.9
2018-04-23T07:30:35.531Z,77.75
2018-04-23T07:31:35.177Z,77.67
2018-04-23T07:32:35.192Z,76.68
2018-04-23T07:33:35.208Z,78.49
2018-04-23T07:34:35.185Z,79.51
2018-04-23T07:35:35.200Z,78.74
2018-04-23T07:36:35.204Z,78.44
2018-04-23T07:37:35.166Z,79.01
2018-04-23T07:38:35.178Z,78.12
2018-04-23T07:39:35.182Z,77.24
2018-04-23T07:40:35.199Z,77.66
2018-04-23T07:41:35.202Z,77.41
2018-04-23T07:42:35.183Z,77.55
2018-04-23T07:43:35.168Z,78.11
2018-04-23T07:44:35.184Z,77.96
2018-04-23T07:45:35.303Z,78.13
2018-04-23T07:46:35.218Z,77.87
2018-04-23T07:47:35.255Z,77.36
2018-04-23T07:48:35.280Z,78.59
2018-04-23T07:49:35.171Z,78.42
2018-04-23T07:50:37.152Z,78.28
2018-04-23T07:51:35.195Z,78.29
2018-04-23T07:52:35.176Z,79.51
2018-04-23T07:53:35.181Z,79.21
2018-04-23T07:54:35.181Z,79.01
2018-04-23T07:55:35.170Z,78.85
2018-04-23T07:56:35.219Z,78.83
2018-04-23T07:57:35.207Z,81.12
2018-04-23T07:58:35.214Z,79.88
2018-04-23T07:59:35.250Z,80.57
2018-04-23T08:00:35.185Z,79
2018-04-23T08:01:35.226Z,80.54
2018-04-23T08:02:35.192Z,80.15
2018-04-23T08:03:35.199Z,80.55
2018-04-23T08:04:35.238Z,80.52
2018-04-23T08:05:35.212Z,79.96
2018-04-23T08:06:35.381Z,80.7
2018-04-23T08:07:35.196Z,80.8
2018-04-23T08:08:35.181Z,81.16
2018-04-23T08:09:35.202Z,80.59
2018-04-23T08:10:35.253Z,81.28
2018-04-23T08:11:35.217Z,81.14
2018-04-23T08:12:35.508Z,80.66
2018-04-23T08:13:35.214Z,80.08
2018-04-23T08:14:35.186Z,80.01
2018-04-23T08:15:35.216Z,80.54
2018-04-23T08:16:35.202Z,80.06
2018-04-23T08:17:35.244Z,80.18
2018-04-23T08:18:35.200Z,81.16
2018-04-23T08:19:35.233Z,79.96
2018-04-23T08:20:35.208Z,80.19
2018-04-23T08:21:35.205Z,80.54
2018-04-23T08:22:35.408Z,81.14
2018-04-23T08:23:35.248Z,80.75
2018-04-23T08:24:35.236Z,81.34
2018-04-23T08:25:35.193Z,80.29
2018-04-23T08:26:35.990Z,79.97
2018-04-23T08:27:35.236Z,81.71
2018-04-23T08:28:35.205Z,81.45
2018-04-23T08:29:35.218Z,80.54
2018-04-23T08:30:35.244Z,80.98
2018-04-23T08:31:35.260Z,80.39
2018-04-23T08:32:35.210Z,81.58
2018-04-23T08:33:35.255Z,81.83
2018-04-23T08:34:35.241Z,81.8
2018-04-23T08:35:35.314Z,82.2
2018-04-23T08:36:35.235Z,82.15
2018-04-23T08:37:35.500Z,82.86
2018-04-23T08:38:35.279Z,82.26
2018-04-23T08:39:35.262Z,82.48
2018-04-23T08:40:35.217Z,82.05
2018-04-23T08:41:35.214Z,81.89
2018-04-23T08:42:35.210Z,81.38
2018-04-23T08:43:35.257Z,81.73
2018-04-23T08:44:35.218Z,82.8
2018-04-23T08:45:35.211Z,81.86
2018-04-23T08:46:35.232Z,81.9
2018-04-23T08:47:35.225Z,81.56
2018-04-23T08:48:35.239Z,82.24
2018-04-23T08:49:35.316Z,81.92
2018-04-23T08:50:35.210Z,81.61
2018-04-23T08:51:35.199Z,82.14
2018-04-23T08:52:35.228Z,81.88
2018-04-23T08:53:35.276Z,82.22
2018-04-23T08:54:35.396Z,81.34
2018-04-23T08:55:35.204Z,81.97
2018-04-23T08:56:35.290Z,81.75
2018-04-23T08:57:35.373Z,81.93
2018-04-23T08:58:35.215Z,81.37
2018-04-23T08:59:35.337Z,82.2
2018-04-23T09:00:35.241Z,82.13
2018-04-23T09:01:35.220Z,82.09
2018-04-23T09:02:35.253Z,82.99
2018-04-23T09:03:35.275Z,81.53
2018-04-23T09:04:35.399Z,82.19
2018-04-23T09:05:35.232Z,81.99
2018-04-23T09:06:35.236Z,81.99
2018-04-23T09:07:35.230Z,83.27
2018-04-23T09:08:35.697Z,81.79
2018-04-23T09:09:35.356Z,82.34
2018-04-23T09:10:35.221Z,82.68
2018-04-23T09:11:35.260Z,83.5
2018-04-23T09:12:35.235Z,83.39
2018-04-23T09:13:35.355Z,82.71
2018-04-23T09:14:35.271Z,82.43
2018-04-23T09:15:35.231Z,83.04
2018-04-23T09:16:35.597Z,82.85
2018-04-23T09:17:35.291Z,83.82
2018-04-23T09:18:35.248Z,82.18
2018-04-23T09:19:35.239Z,82.21
2018-04-23T09:20:35.218Z,83.09
2018-04-23T09:21:35.255Z,83.92
2018-04-23T09:22:35.248Z,82.37
2018-04-23T09:23:35.267Z,82.56
2018-04-23T09:24:35.241Z,83.56
2018-04-23T09:25:35.221Z,83.8
2018-04-23T09:26:35.246Z,82.79
2018-04-23T09:27:35.246Z,82.37
2018-04-23T09:28:35.271Z,81.97
2018-04-23T09:29:35.252Z,82.53
2018-04-23T09:30:35.230Z,82.05
2018-04-23T09:31:35.578Z,82.54
2018-04-23T09:32:35.237Z,82.02
2018-04-23T09:33:35.247Z,81.76
2018-04-23T09:34:35.256Z,82.14
2018-04-23T09:35:35.258Z,82.05
2018-04-23T09:36:35.554Z,82.2
2018-04-23T09:37:35.276Z,83.29
2018-04-23T09:38:35.219Z,83.18
2018-04-23T09:39:35.268Z,82.55
2018-04-23T09:40:35.227Z,83.12
2018-04-23T09:41:35.246Z,80.88
2018-04-23T09:42:35.273Z,82.47
2018-04-23T09:43:35.287Z,80.98
2018-04-23T09:44:35.844Z,82.22
2018-04-23T09:45:35.269Z,82.52
2018-04-23T09:46:35.290Z,82.93
2018-04-23T09:47:35.308Z,82.32
2018-04-23T09:48:35.237Z,80.66
2018-04-23T09:49:35.313Z,81.26
2018-04-23T09:50:35.262Z,80.62
2018-04-23T09:51:35.228Z,82.38
2018-04-23T09:52:35.268Z,81.79
2018-04-23T09:53:35.292Z,79.58
2018-04-23T09:54:35.294Z,80.46
2018-04-23T09:55:35.274Z,79.44
2018-04-23T09:56:35.248Z,79.09
2018-04-23T09:57:35.274Z,80.27
2018-04-23T09:58:35.611Z,79.75
2018-04-23T09:59:35.387Z,78.52
2018-04-23T10:00:35.280Z,79.93
2018-04-23T10:01:35.281Z,80.47
2018-04-23T10:02:35.276Z,80.61
2018-04-23T10:03:35.400Z,80.07
2018-04-23T10:04:35.310Z,80.56
2018-04-23T10:05:35.327Z,80.33
2018-04-23T10:06:35.272Z,81.71
2018-04-23T10:07:35.350Z,80.74
2018-04-23T10:08:35.291Z,79.92
2018-04-23T10:09:35.278Z,79.69
2018-04-23T10:10:35.304Z,81.14
2018-04-23T10:11:35.407Z,81.43
2018-04-23T10:12:35.273Z,80.52
2018-04-23T10:13:35.286Z,81.47
2018-04-23T10:14:35.271Z,81.46
2018-04-23T10:15:35.287Z,79.42
2018-04-23T10:16:35.300Z,79.75
2018-04-23T10:17:35.320Z,77.47
2018-04-23T10:18:35.671Z,76.93
2018-04-23T10:19:35.373Z,77.31
2018-04-23T10:20:35.430Z,78.52
2018-04-23T10:21:35.289Z,77.54
2018-04-23T10:22:35.292Z,76.27
2018-04-23T10:23:35.284Z,75.48
2018-04-23T10:24:35.284Z,76.59
2018-04-23T10:25:35.363Z,77.54
2018-04-23T10:26:35.332Z,78.8
2018-04-23T10:27:35.289Z,78.76
2018-04-23T10:28:35.331Z,78.68
2018-04-23T10:29:35.288Z,78.99
2018-04-23T10:30:35.322Z,79.38
2018-04-23T10:31:35.385Z,77.26
2018-04-23T10:32:35.290Z,78.58
2018-04-23T10:33:35.276Z,78.28
2018-04-23T10:34:35.303Z,77.76
2018-04-23T10:35:35.690Z,78.29
2018-04-23T10:36:35.279Z,77.76
2018-04-23T10:37:35.325Z,78.4
2018-04-23T10:38:35.301Z,76.35
2018-04-23T10:39:35.261Z,75.24
2018-04-23T10:40:35.348Z,74.66
2018-04-23T10:41:35.342Z,74.16
2018-04-23T10:42:35.325Z,74.54
2018-04-23T10:43:35.320Z,75.21
2018-04-23T10:44:35.265Z,75.91
2018-04-23T10:45:35.750Z,74.73
2018-04-23T10:46:35.305Z,74.77
2018-04-23T10:47:35.316Z,73.9
2018-04-23T10:48:35.438Z,73.7
2018-04-23T10:49:35.315Z,72.03
2018-04-23T10:50:35.359Z,73.7
2018-04-23T10:51:35.289Z,72.98
2018-04-23T10:52:35.301Z,73.89
2018-04-23T10:53:35.340Z,73.98
2018-04-23T10:54:35.340Z,74.14
2018-04-23T10:55:35.338Z,73.71
2018-04-23T10:56:35.304Z,72.68
2018-04-23T10:57:35.320Z,72.47
2018-04-23T10:58:35.313Z,72.14
2018-04-23T10:59:35.325Z,72.67
2018-04-23T11:00:35.299Z,71.92
2018-04-23T11:01:35.326Z,73.4
2018-04-23T11:02:35.367Z,73.36
2018-04-23T11:03:35.321Z,72.94
2018-04-23T11:04:35.303Z,72.01
2018-04-23T11:05:35.333Z,72.72
2018-04-23T11:06:35.346Z,72.57
2018-04-23T11:07:35.304Z,72.73
2018-04-23T11:08:35.295Z,72.29
2018-04-23T11:09:35.464Z,72.71
2018-04-23T11:10:35.409Z,72.33
2018-04-23T11:11:35.330Z,72.81
2018-04-23T11:12:35.331Z,72.38
2018-04-23T11:13:35.350Z,73.08
2018-04-23T11:14:35.332Z,73.19
2018-04-23T11:15:35.473Z,73.39
2018-04-23T11:16:35.356Z,73.31
2018-04-23T11:17:35.362Z,73.37
2018-04-23T11:18:35.304Z,72.19
2018-04-23T11:19:35.399Z,71.87
2018-04-23T11:20:35.337Z,71.67
2018-04-23T11:21:35.299Z,72.27
2018-04-23T11:22:35.355Z,71.53
2018-04-23T11:23:35.404Z,71.09
2018-04-23T11:24:35.318Z,71.39
2018-04-23T11:25:35.337Z,70.25
2018-04-23T11:26:35.374Z,70.68
2018-04-23T11:27:35.345Z,70.76
2018-04-23T11:28:35.532Z,70.76
2018-04-23T11:29:35.300Z,71.56
2018-04-23T11:30:35.362Z,71.71
2018-04-23T11:31:35.470Z,71.2
2018-04-23T11:32:35.660Z,71.44
2018-04-23T11:33:35.360Z,71.49
2018-04-23T11:34:35.318Z,71.82
2018-04-23T11:35:35.318Z,70.62
2018-04-23T11:36:35.336Z,70.83
2018-04-23T11:37:35.368Z,70.82
2018-04-23T11:38:35.344Z,70.41
2018-04-23T11:39:35.329Z,71.27
2018-04-23T11:40:35.306Z,70.47
2018-04-23T11:41:35.342Z,70.62
2018-04-23T11:42:35.355Z,70.77
2018-04-23T11:43:35.326Z,70.51
2018-04-23T11:44:35.313Z,71.12
2018-04-23T11:45:35.349Z,72.17
2018-04-23T11:46:35.433Z,71.72
2018-04-23T11:47:35.330Z,72.03
2018-04-23T11:48:35.338Z,71.85
2018-04-23T11:49:35.347Z,72.34
2018-04-23T11:50:35.334Z,72.42
2018-04-23T11:51:35.391Z,72.04
2018-04-23T11:52:35.353Z,71.7
2018-04-23T11:53:35.362Z,71.15
2018-04-23T11:54:35.364Z,70.91
2018-04-23T11:55:35.330Z,70.66
2018-04-23T11:56:35.329Z,71.11
2018-04-23T11:57:35.371Z,71.49
2018-04-23T11:58:35.497Z,72.24
2018-04-23T11:59:35.337Z,71.15
2018-04-23T12:00:35.320Z,71.54
2018-04-23T12:01:35.342Z,70.83
2018-04-23T12:02:35.328Z,70.88
2018-04-23T12:03:35.356Z,70.8
2018-04-23T12:04:35.653Z,70.39
2018-04-23T12:05:35.449Z,70.26
2018-04-23T12:06:35.349Z,70.19
2018-04-23T12:07:35.360Z,71.19
2018-04-23T12:08:35.336Z,70.63
2018-04-23T12:09:35.486Z,71.01
2018-04-23T12:10:35.332Z,71.2
2018-04-23T12:11:35.337Z,71.18
2018-04-23T12:12:35.354Z,70.71
2018-04-23T12:13:35.364Z,70.65
2018-04-23T12:14:35.391Z,70.99
2018-04-23T12:15:35.353Z,70.39
2018-04-23T12:16:35.358Z,70.91
2018-04-23T12:17:35.364Z,70.49
2018-04-23T12:18:35.343Z,71.09
2018-04-23T12:19:35.374Z,70.86
2018-04-23T12:20:35.370Z,70.2
2018-04-23T12:21:35.505Z,69.97
2018-04-23T12:22:35.384Z,70.74
2018-04-23T12:23:35.510Z,71.22
2018-04-23T12:24:35.367Z,70.56
2018-04-23T12:25:35.369Z,70.88
2018-04-23T12:26:35.418Z,71.48
2018-04-23T12:27:35.396Z,70.8
2018-04-23T12:28:35.365Z,71.21
2018-04-23T12:29:35.398Z,71.15
2018-04-23T12:30:35.449Z,70.62
2018-04-23T12:31:35.374Z,71.22
2018-04-23T12:32:35.463Z,70.21
2018-04-23T12:33:35.373Z,69.55
2018-04-23T12:34:35.754Z,69.88
2018-04-23T12:35:35.400Z,70.19
2018-04-23T12:36:35.515Z,69.61
2018-04-23T12:37:36.791Z,69.83
2018-04-23T12:38:35.395Z,70.13
2018-04-23T12:39:35.440Z,69.95
2018-04-23T12:40:35.385Z,69.18
2018-04-23T12:41:35.372Z,68.95
2018-04-23T12:42:35.360Z,69.34
2018-04-23T12:43:35.357Z,69.5
2018-04-23T12:44:35.404Z,69.92
2018-04-23T12:45:35.392Z,69.04
2018-04-23T12:46:35.396Z,68.38
2018-04-23T12:47:35.339Z,68.9
2018-04-23T12:48:35.352Z,68.08
2018-04-23T12:49:35.412Z,68.71
2018-04-23T12:50:35.387Z,68.6
2018-04-23T12:51:35.380Z,69.07
2018-04-23T12:52:35.355Z,68.83
2018-04-23T12:53:35.371Z,68.62
2018-04-23T12:54:35.385Z,69.3
2018-04-23T12:55:35.409Z,68.27